Murehe, Burundi

8:08 PM CAT on January 18, 2018 (GMT +0200)
Kigali | | Change Station

Elev 4911 ft 1.97 °S, 30.12 °E | Updated 1 hour ago

Thunderstorm
Thunderstorm
70 °F
Feels Like 70 °F
N
13
Wind Variable Wind from NNE

Today
High -- | Low -- °F
--% Chance of Precip.
Yesterday
High -- | Low -- °F
Precip. -- in
Pressure 30.04 in
Visibility 6.2 miles
Clouds Few 2300 ft
Mostly Cloudy 2500 ft
Dew Point 57 °F
Humidity 64%
Rainfall 0.00 in
Snow Depth Not available.
6:02 AM 6:16 PM
New Moon, 2% visible
METAR HRYR 181630Z 02011KT 350V060 9999 TS FEW023CB BKN025 21/14 Q1017 TEMPO TSRA
Pressure 30.04 in
Visibility 6.2 miles
Clouds Few 2300 ft
Mostly Cloudy 2500 ft
Dew Point 57 °F
Humidity 64%
Rainfall 0.00 in
Snow Depth Not available.
6:02 AM 6:16 PM
New Moon, 2% visible
METAR HRYR 181630Z 02011KT 350V060 9999 TS FEW023CB BKN025 21/14 Q1017 TEMPO TSRA

Get Severe Weather Alerts

Thanks for signing up!

Be on the lookout for a verification email in your inbox.

You'll start receiving the daily forecast at 6 AM.

×

10-Day Weather Forecast

No radar image for this location.
×

Almanac

Astronomy

Jan. 18, 2018 Rise Set
Actual Time
Civil Twilight
Nautical Twilight
Astronomical Twilight
Moon
Length of Visible Light
Length of Day
Tomorrow will be .
, % of the Moon is Illuminated

Today's Extremes

Country Highs Country Lows

Community

WunderPhotos

Category 6

Welcome to Category 6. This is the collective home for Weather Underground's featured writeups by Dr. Jeff Masters (right), Bob Henson (left), Chris Burt, and other regular contributors.

Nearby

Air Quality

  Air Quality AQ Index Pollutant
Not available.

Snow Depth

Station Depth Elevation

Earthquake Activity

City Distance Mag. Time & Date
Minimum magnitude displayed is 2.5.

Coastal Water Temperatures

Place Temperature

Stations

Nearby Weather Stations

Station Location Temp. Windchill Dew Point Humidity Wind Precip. Elev Updated Type